EmailTwitter


Observations de surface / Canada / CYYZ (71624)

Régions: Québec | Canada | États-Unis | Europe | France | UK | Elsewhere
Station
Affichage
Infos & localisation pour CYYZ (71624) | Aide pour décoder les METARs

Observations prises le 2017-03-24 à 11H13 UTC à TORONTO A, ON (CYYZ)

Etat du ciel: couvert.

Obstacle(s) à la visibilité: faibles averses de pluie.

Température: 1.0 Celsius

Point de rosée: 0.0 Celsius

Humidité relative: 93%

Facteur vent: -2.

Vents: Sud-est à 9 km/h ou 5 noeuds.

Pression au niveau moyen de la mer: 101.99 kilopascals.

Calage altimétrique: 101.90 kilopascals ou 30.09 pouces de mercure.

Visibilité horizontale: 4.00 milles terrestres ou 6.40 kilomètres.

Hauteur du plafond: 1372 mètres ( 4500 pieds ).

Observation METAR:

CYYZ 241113Z 15005KT 4SM -SHRA SCT025 OVC045 01/M00 A3009 RMK SC3SC5 CVCTV CLD

EMBD SLP199=